sensor_id;sensor_type;location;lat;lon;timestamp;pressure;altitude;pressure_sealevel;temperature
71807;BMP280;59655;42.590;23.364;2022-07-06T00:01:27;91600.66;;;20.35
71807;BMP280;59655;42.590;23.364;2022-07-06T00:03:53;91599.31;;;20.50
71807;BMP280;59655;42.590;23.364;2022-07-06T00:06:18;91587.19;;;20.49
71807;BMP280;59655;42.590;23.364;2022-07-06T00:08:44;91579.81;;;20.22
71807;BMP280;59655;42.590;23.364;2022-07-06T00:11:10;91587.59;;;20.29
71807;BMP280;59655;42.590;23.364;2022-07-06T00:13:35;91588.28;;;20.44
71807;BMP280;59655;42.590;23.364;2022-07-06T00:16:01;91587.56;;;20.43
71807;BMP280;59655;42.590;23.364;2022-07-06T00:18:27;91600.13;;;20.25
71807;BMP280;59655;42.590;23.364;2022-07-06T00:20:52;91603.75;;;20.43
71807;BMP280;59655;42.590;23.364;2022-07-06T00:23:18;91615.53;;;20.36
71807;BMP280;59655;42.590;23.364;2022-07-06T00:25:43;91618.72;;;20.46
71807;BMP280;59655;42.590;23.364;2022-07-06T00:28:10;91631.22;;;20.53
71807;BMP280;59655;42.590;23.364;2022-07-06T00:30:35;91631.41;;;20.58
71807;BMP280;59655;42.590;23.364;2022-07-06T00:33:01;91630.50;;;20.39
71807;BMP280;59655;42.590;23.364;2022-07-06T00:35:26;91630.31;;;20.35
71807;BMP280;59655;42.590;23.364;2022-07-06T00:37:52;91631.13;;;20.24
71807;BMP280;59655;42.590;23.364;2022-07-06T00:40:17;91647.38;;;19.87
71807;BMP280;59655;42.590;23.364;2022-07-06T00:42:45;91639.69;;;20.06
71807;BMP280;59655;42.590;23.364;2022-07-06T00:45:11;91631.75;;;19.83
71807;BMP280;59655;42.590;23.364;2022-07-06T00:47:38;91637.94;;;19.99
71807;BMP280;59655;42.590;23.364;2022-07-06T00:50:04;91625.13;;;19.86
71807;BMP280;59655;42.590;23.364;2022-07-06T00:52:55;91626.59;;;20.01
71807;BMP280;59655;42.590;23.364;2022-07-06T00:55:24;91627.31;;;20.15
71807;BMP280;59655;42.590;23.364;2022-07-06T00:57:51;91631.69;;;20.22
71807;BMP280;59655;42.590;23.364;2022-07-06T01:00:19;91618.13;;;20.06
71807;BMP280;59655;42.590;23.364;2022-07-06T01:02:45;91615.13;;;20.14
71807;BMP280;59655;42.590;23.364;2022-07-06T01:05:13;91610.94;;;20.11
71807;BMP280;59655;42.590;23.364;2022-07-06T01:07:41;91606.22;;;20.12
71807;BMP280;59655;42.590;23.364;2022-07-06T01:10:08;91602.56;;;20.19
71807;BMP280;59655;42.590;23.364;2022-07-06T01:12:38;91603.53;;;20.12
71807;BMP280;59655;42.590;23.364;2022-07-06T01:15:06;91601.34;;;20.08
71807;BMP280;59655;42.590;23.364;2022-07-06T01:17:33;91601.94;;;20.06
71807;BMP280;59655;42.590;23.364;2022-07-06T01:20:17;91600.91;;;20.00
71807;BMP280;59655;42.590;23.364;2022-07-06T01:22:43;91599.94;;;19.93
71807;BMP280;59655;42.590;23.364;2022-07-06T01:25:10;91599.94;;;19.93
71807;BMP280;59655;42.590;23.364;2022-07-06T01:27:38;91599.94;;;19.93
71807;BMP280;59655;42.590;23.364;2022-07-06T01:30:21;91598.84;;;19.98
71807;BMP280;59655;42.590;23.364;2022-07-06T01:32:47;91599.63;;;19.87
71807;BMP280;59655;42.590;23.364;2022-07-06T01:35:14;91594.41;;;19.77
71807;BMP280;59655;42.590;23.364;2022-07-06T01:37:40;91592.72;;;19.84
71807;BMP280;59655;42.590;23.364;2022-07-06T01:40:08;91603.72;;;19.88
71807;BMP280;59655;42.590;23.364;2022-07-06T01:42:34;91599.72;;;19.75
71807;BMP280;59655;42.590;23.364;2022-07-06T01:45:00;91589.91;;;19.82
71807;BMP280;59655;42.590;23.364;2022-07-06T01:47:25;91593.19;;;19.80
71807;BMP280;59655;42.590;23.364;2022-07-06T01:49:51;91599.78;;;19.77
71807;BMP280;59655;42.590;23.364;2022-07-06T01:52:16;91604.91;;;19.85
71807;BMP280;59655;42.590;23.364;2022-07-06T01:54:42;91613.59;;;19.83
71807;BMP280;59655;42.590;23.364;2022-07-06T01:57:07;91617.56;;;19.82
71807;BMP280;59655;42.590;23.364;2022-07-06T01:59:33;91613.56;;;19.70
71807;BMP280;59655;42.590;23.364;2022-07-06T02:01:58;91611.41;;;19.54
71807;BMP280;59655;42.590;23.364;2022-07-06T02:04:23;91610.78;;;19.56
71807;BMP280;59655;42.590;23.364;2022-07-06T02:06:49;91615.00;;;19.33
71807;BMP280;59655;42.590;23.364;2022-07-06T02:09:14;91613.34;;;19.40
71807;BMP280;59655;42.590;23.364;2022-07-06T02:11:41;91606.16;;;19.19
71807;BMP280;59655;42.590;23.364;2022-07-06T02:14:07;91605.09;;;19.24
71807;BMP280;59655;42.590;23.364;2022-07-06T02:16:32;91602.47;;;19.38
71807;BMP280;59655;42.590;23.364;2022-07-06T02:18:58;91604.88;;;19.46
71807;BMP280;59655;42.590;23.364;2022-07-06T02:21:23;91621.41;;;19.40
71807;BMP280;59655;42.590;23.364;2022-07-06T02:23:48;91635.19;;;19.46
71807;BMP280;59655;42.590;23.364;2022-07-06T02:26:14;91626.88;;;19.42
71807;BMP280;59655;42.590;23.364;2022-07-06T02:28:39;91631.50;;;19.40
71807;BMP280;59655;42.590;23.364;2022-07-06T02:31:05;91634.56;;;19.22
71807;BMP280;59655;42.590;23.364;2022-07-06T02:33:30;91629.75;;;19.32
71807;BMP280;59655;42.590;23.364;2022-07-06T02:35:55;91621.50;;;19.42
71807;BMP280;59655;42.590;23.364;2022-07-06T02:38:21;91619.03;;;19.46
71807;BMP280;59655;42.590;23.364;2022-07-06T02:40:46;91623.88;;;19.36
71807;BMP280;59655;42.590;23.364;2022-07-06T02:43:12;91630.50;;;19.21
71807;BMP280;59655;42.590;23.364;2022-07-06T02:45:37;91621.28;;;19.13
71807;BMP280;59655;42.590;23.364;2022-07-06T02:48:03;91632.44;;;18.95
71807;BMP280;59655;42.590;23.364;2022-07-06T02:50:29;91627.88;;;18.98
71807;BMP280;59655;42.590;23.364;2022-07-06T02:52:54;91624.06;;;18.89
71807;BMP280;59655;42.590;23.364;2022-07-06T02:55:20;91630.94;;;18.80
71807;BMP280;59655;42.590;23.364;2022-07-06T02:57:45;91624.19;;;18.68
71807;BMP280;59655;42.590;23.364;2022-07-06T03:00:11;91628.28;;;18.69
71807;BMP280;59655;42.590;23.364;2022-07-06T03:02:37;91620.34;;;18.59
71807;BMP280;59655;42.590;23.364;2022-07-06T03:05:02;91614.38;;;18.60
71807;BMP280;59655;42.590;23.364;2022-07-06T03:07:28;91614.84;;;18.69
71807;BMP280;59655;42.590;23.364;2022-07-06T03:09:53;91606.66;;;18.67
71807;BMP280;59655;42.590;23.364;2022-07-06T03:12:18;91605.72;;;18.62
71807;BMP280;59655;42.590;23.364;2022-07-06T03:14:44;91603.16;;;18.52
71807;BMP280;59655;42.590;23.364;2022-07-06T03:17:09;91597.19;;;18.54
71807;BMP280;59655;42.590;23.364;2022-07-06T03:19:35;91597.19;;;18.54
71807;BMP280;59655;42.590;23.364;2022-07-06T03:22:00;91606.81;;;18.57
71807;BMP280;59655;42.590;23.364;2022-07-06T03:24:26;91613.78;;;18.50
71807;BMP280;59655;42.590;23.364;2022-07-06T03:26:51;91610.66;;;18.42
71807;BMP280;59655;42.590;23.364;2022-07-06T03:29:17;91619.16;;;18.62
71807;BMP280;59655;42.590;23.364;2022-07-06T03:31:42;91613.66;;;18.48
71807;BMP280;59655;42.590;23.364;2022-07-06T03:34:09;91622.69;;;18.53
71807;BMP280;59655;42.590;23.364;2022-07-06T03:36:34;91625.25;;;18.62
71807;BMP280;59655;42.590;23.364;2022-07-06T03:39:00;91621.38;;;18.65
71807;BMP280;59655;42.590;23.364;2022-07-06T03:41:25;91624.06;;;18.65
71807;BMP280;59655;42.590;23.364;2022-07-06T03:43:50;91620.78;;;18.79
71807;BMP280;59655;42.590;23.364;2022-07-06T03:46:16;91626.16;;;18.79
71807;BMP280;59655;42.590;23.364;2022-07-06T03:48:41;91633.03;;;18.82
71807;BMP280;59655;42.590;23.364;2022-07-06T03:51:07;91626.34;;;18.95
71807;BMP280;59655;42.590;23.364;2022-07-06T03:53:32;91627.75;;;18.96
71807;BMP280;59655;42.590;23.364;2022-07-06T03:55:58;91631.38;;;19.00
71807;BMP280;59655;42.590;23.364;2022-07-06T03:58:42;91634.81;;;18.89
71807;BMP280;59655;42.590;23.364;2022-07-06T04:01:07;91631.38;;;19.00
71807;BMP280;59655;42.590;23.364;2022-07-06T04:03:32;91638.53;;;18.84
71807;BMP280;59655;42.590;23.364;2022-07-06T04:05:58;91640.06;;;18.87
71807;BMP280;59655;42.590;23.364;2022-07-06T04:08:23;91624.50;;;18.85
71807;BMP280;59655;42.590;23.364;2022-07-06T04:10:48;91631.53;;;18.79
71807;BMP280;59655;42.590;23.364;2022-07-06T04:13:14;91635.94;;;18.86
71807;BMP280;59655;42.590;23.364;2022-07-06T04:15:39;91634.06;;;19.00
71807;BMP280;59655;42.590;23.364;2022-07-06T04:18:05;91632.50;;;19.09
71807;BMP280;59655;42.590;23.364;2022-07-06T04:20:30;91644.81;;;19.12
71807;BMP280;59655;42.590;23.364;2022-07-06T04:22:56;91646.78;;;19.11
71807;BMP280;59655;42.590;23.364;2022-07-06T04:25:21;91635.66;;;19.17
71807;BMP280;59655;42.590;23.364;2022-07-06T04:28:09;91643.47;;;19.25
71807;BMP280;59655;42.590;23.364;2022-07-06T04:31:08;91645.19;;;19.32
71807;BMP280;59655;42.590;23.364;2022-07-06T04:33:34;91644.28;;;19.27
71807;BMP280;59655;42.590;23.364;2022-07-06T04:35:59;91646.41;;;19.17
71807;BMP280;59655;42.590;23.364;2022-07-06T04:38:25;91641.25;;;19.21
71807;BMP280;59655;42.590;23.364;2022-07-06T04:40:50;91642.13;;;19.38
71807;BMP280;59655;42.590;23.364;2022-07-06T04:43:15;91643.53;;;19.39
71807;BMP280;59655;42.590;23.364;2022-07-06T04:45:41;91639.06;;;19.43
71807;BMP280;59655;42.590;23.364;2022-07-06T04:48:06;91647.69;;;19.53
71807;BMP280;59655;42.590;23.364;2022-07-06T04:50:33;91646.09;;;19.36
71807;BMP280;59655;42.590;23.364;2022-07-06T04:52:59;91652.38;;;19.53
71807;BMP280;59655;42.590;23.364;2022-07-06T04:55:24;91655.28;;;19.57
71807;BMP280;59655;42.590;23.364;2022-07-06T04:57:49;91658.28;;;19.63
71807;BMP280;59655;42.590;23.364;2022-07-06T05:00:17;91659.75;;;19.52
71807;BMP280;59655;42.590;23.364;2022-07-06T05:02:42;91665.94;;;19.55
71807;BMP280;59655;42.590;23.364;2022-07-06T05:05:09;91671.53;;;19.59
71807;BMP280;59655;42.590;23.364;2022-07-06T05:07:35;91680.22;;;19.57
71807;BMP280;59655;42.590;23.364;2022-07-06T05:10:08;91675.63;;;19.60
71807;BMP280;59655;42.590;23.364;2022-07-06T05:12:34;91690.56;;;19.38
71807;BMP280;59655;42.590;23.364;2022-07-06T05:15:00;91674.63;;;19.53
71807;BMP280;59655;42.590;23.364;2022-07-06T05:17:25;91688.38;;;19.59
71807;BMP280;59655;42.590;23.364;2022-07-06T05:19:51;91695.03;;;19.33
71807;BMP280;59655;42.590;23.364;2022-07-06T05:22:17;91695.78;;;19.22
71807;BMP280;59655;42.590;23.364;2022-07-06T05:24:42;91705.47;;;19.15
71807;BMP280;59655;42.590;23.364;2022-07-06T05:27:07;91689.78;;;19.23
71807;BMP280;59655;42.590;23.364;2022-07-06T05:29:33;91702.31;;;19.30
71807;BMP280;59655;42.590;23.364;2022-07-06T05:31:58;91707.56;;;19.28
71807;BMP280;59655;42.590;23.364;2022-07-06T05:34:24;91708.22;;;19.03
71807;BMP280;59655;42.590;23.364;2022-07-06T05:36:49;91707.47;;;19.26
71807;BMP280;59655;42.590;23.364;2022-07-06T05:39:14;91708.41;;;19.19
71807;BMP280;59655;42.590;23.364;2022-07-06T05:41:45;91708.53;;;19.21
71807;BMP280;59655;42.590;23.364;2022-07-06T05:44:10;91697.53;;;19.17
71807;BMP280;59655;42.590;23.364;2022-07-06T05:46:35;91706.78;;;19.14
71807;BMP280;59655;42.590;23.364;2022-07-06T05:49:01;91711.81;;;19.20
71807;BMP280;59655;42.590;23.364;2022-07-06T05:51:45;91714.25;;;19.16
71807;BMP280;59655;42.590;23.364;2022-07-06T05:54:10;91711.00;;;19.17
71807;BMP280;59655;42.590;23.364;2022-07-06T05:56:35;91716.38;;;19.17
71807;BMP280;59655;42.590;23.364;2022-07-06T05:59:01;91720.06;;;19.35
71807;BMP280;59655;42.590;23.364;2022-07-06T06:01:26;91709.28;;;19.47
71807;BMP280;59655;42.590;23.364;2022-07-06T06:03:52;91710.91;;;19.52
71807;BMP280;59655;42.590;23.364;2022-07-06T06:06:17;91707.06;;;19.44
71807;BMP280;59655;42.590;23.364;2022-07-06T06:08:42;91707.44;;;19.64
71807;BMP280;59655;42.590;23.364;2022-07-06T06:11:08;91701.16;;;19.59
71807;BMP280;59655;42.590;23.364;2022-07-06T06:13:33;91708.84;;;19.65
71807;BMP280;59655;42.590;23.364;2022-07-06T06:15:59;91719.75;;;19.67
71807;BMP280;59655;42.590;23.364;2022-07-06T06:18:24;91703.91;;;19.73
71807;BMP280;59655;42.590;23.364;2022-07-06T06:20:51;91704.66;;;19.62
71807;BMP280;59655;42.590;23.364;2022-07-06T06:23:16;91700.78;;;19.65
71807;BMP280;59655;42.590;23.364;2022-07-06T06:25:42;91702.41;;;19.70
71807;BMP280;59655;42.590;23.364;2022-07-06T06:28:09;91701.41;;;19.77
71807;BMP280;59655;42.590;23.364;2022-07-06T06:30:36;91708.22;;;19.78
71807;BMP280;59655;42.590;23.364;2022-07-06T06:33:19;91709.13;;;19.82
71807;BMP280;59655;42.590;23.364;2022-07-06T06:35:46;91688.50;;;19.87
71807;BMP280;59655;42.590;23.364;2022-07-06T06:38:12;91703.47;;;19.90
71807;BMP280;59655;42.590;23.364;2022-07-06T06:40:38;91701.63;;;19.81
71807;BMP280;59655;42.590;23.364;2022-07-06T06:43:03;91706.31;;;19.80
71807;BMP280;59655;42.590;23.364;2022-07-06T06:45:29;91704.88;;;19.91
71807;BMP280;59655;42.590;23.364;2022-07-06T06:47:54;91691.53;;;19.93
71807;BMP280;59655;42.590;23.364;2022-07-06T06:50:20;91688.19;;;20.06
71807;BMP280;59655;42.590;23.364;2022-07-06T06:52:48;91695.25;;;20.14
71807;BMP280;59655;42.590;23.364;2022-07-06T06:55:13;91692.06;;;20.17
71807;BMP280;59655;42.590;23.364;2022-07-06T06:57:39;91698.00;;;20.27
71807;BMP280;59655;42.590;23.364;2022-07-06T07:00:04;91705.19;;;20.37
71807;BMP280;59655;42.590;23.364;2022-07-06T07:02:30;91702.59;;;20.39
71807;BMP280;59655;42.590;23.364;2022-07-06T07:04:55;91708.13;;;20.41
71807;BMP280;59655;42.590;23.364;2022-07-06T07:07:21;91700.03;;;20.41
71807;BMP280;59655;42.590;23.364;2022-07-06T07:09:46;91702.72;;;20.41
71807;BMP280;59655;42.590;23.364;2022-07-06T07:12:12;91704.78;;;20.42
71807;BMP280;59655;42.590;23.364;2022-07-06T07:14:37;91704.41;;;20.48
71807;BMP280;59655;42.590;23.364;2022-07-06T07:17:03;91715.06;;;20.46
71807;BMP280;59655;42.590;23.364;2022-07-06T07:19:29;91708.03;;;20.52
71807;BMP280;59655;42.590;23.364;2022-07-06T07:21:54;91701.31;;;20.67
71807;BMP280;59655;42.590;23.364;2022-07-06T07:24:19;91704.13;;;20.69
71807;BMP280;59655;42.590;23.364;2022-07-06T07:26:45;91701.72;;;20.62
71807;BMP280;59655;42.590;23.364;2022-07-06T07:29:10;91707.63;;;20.72
71807;BMP280;59655;42.590;23.364;2022-07-06T07:31:36;91707.22;;;20.77
71807;BMP280;59655;42.590;23.364;2022-07-06T07:34:01;91711.22;;;20.76
71807;BMP280;59655;42.590;23.364;2022-07-06T07:36:27;91715.72;;;20.86
71807;BMP280;59655;42.590;23.364;2022-07-06T07:38:52;91716.09;;;20.80
71807;BMP280;59655;42.590;23.364;2022-07-06T07:41:17;91718.00;;;20.64
71807;BMP280;59655;42.590;23.364;2022-07-06T07:43:43;91712.22;;;20.69
71807;BMP280;59655;42.590;23.364;2022-07-06T07:46:09;91720.38;;;20.71
71807;BMP280;59655;42.590;23.364;2022-07-06T07:48:34;91722.38;;;20.85
71807;BMP280;59655;42.590;23.364;2022-07-06T07:51:00;91728.63;;;20.73
71807;BMP280;59655;42.590;23.364;2022-07-06T07:53:25;91721.38;;;20.50
71807;BMP280;59655;42.590;23.364;2022-07-06T07:55:52;91713.22;;;20.48
71807;BMP280;59655;42.590;23.364;2022-07-06T07:58:17;91717.09;;;20.59
71807;BMP280;59655;42.590;23.364;2022-07-06T08:00:43;91716.28;;;20.43
71807;BMP280;59655;42.590;23.364;2022-07-06T08:03:08;91711.00;;;20.31
71807;BMP280;59655;42.590;23.364;2022-07-06T08:05:33;91705.28;;;20.39
71807;BMP280;59655;42.590;23.364;2022-07-06T08:07:59;91702.19;;;20.44
71807;BMP280;59655;42.590;23.364;2022-07-06T08:10:24;91707.31;;;20.52
71807;BMP280;59655;42.590;23.364;2022-07-06T08:12:50;91699.72;;;20.48
71807;BMP280;59655;42.590;23.364;2022-07-06T08:15:15;91703.50;;;20.43
71807;BMP280;59655;42.590;23.364;2022-07-06T08:17:41;91703.72;;;20.61
71807;BMP280;59655;42.590;23.364;2022-07-06T08:20:07;91703.63;;;20.73
71807;BMP280;59655;42.590;23.364;2022-07-06T08:22:35;91700.91;;;20.87
71807;BMP280;59655;42.590;23.364;2022-07-06T08:25:01;91703.44;;;20.96
71807;BMP280;59655;42.590;23.364;2022-07-06T08:27:26;91704.91;;;20.99
71807;BMP280;59655;42.590;23.364;2022-07-06T08:29:52;91706.59;;;21.07
71807;BMP280;59655;42.590;23.364;2022-07-06T08:32:17;91705.50;;;20.98
71807;BMP280;59655;42.590;23.364;2022-07-06T08:34:45;91713.09;;;21.01
71807;BMP280;59655;42.590;23.364;2022-07-06T08:37:10;91715.00;;;20.99
71807;BMP280;59655;42.590;23.364;2022-07-06T08:39:36;91714.91;;;20.97
71807;BMP280;59655;42.590;23.364;2022-07-06T08:42:02;91710.91;;;20.98
71807;BMP280;59655;42.590;23.364;2022-07-06T08:44:28;91707.31;;;21.07
71807;BMP280;59655;42.590;23.364;2022-07-06T08:46:54;91704.88;;;21.13
71807;BMP280;59655;42.590;23.364;2022-07-06T08:49:20;91710.78;;;21.10
71807;BMP280;59655;42.590;23.364;2022-07-06T08:51:46;91704.47;;;21.19
71807;BMP280;59655;42.590;23.364;2022-07-06T08:54:12;91707.69;;;21.29
71807;BMP280;59655;42.590;23.364;2022-07-06T08:56:38;91709.56;;;21.26
71807;BMP280;59655;42.590;23.364;2022-07-06T08:59:04;91710.97;;;21.27
71807;BMP280;59655;42.590;23.364;2022-07-06T09:01:33;91716.66;;;21.34
71807;BMP280;59655;42.590;23.364;2022-07-06T09:03:59;91716.16;;;21.37
71807;BMP280;59655;42.590;23.364;2022-07-06T09:06:29;91717.03;;;21.42
71807;BMP280;59655;42.590;23.364;2022-07-06T09:08:56;91716.16;;;21.37
71807;BMP280;59655;42.590;23.364;2022-07-06T09:11:22;91723.44;;;21.35
71807;BMP280;59655;42.590;23.364;2022-07-06T09:13:49;91718.44;;;21.43
71807;BMP280;59655;42.590;23.364;2022-07-06T09:16:15;91710.25;;;21.41
71807;BMP280;59655;42.590;23.364;2022-07-06T09:18:44;91713.78;;;21.30
71807;BMP280;59655;42.590;23.364;2022-07-06T09:21:10;91708.66;;;21.36
71807;BMP280;59655;42.590;23.364;2022-07-06T09:23:37;91710.94;;;21.41
71807;BMP280;59655;42.590;23.364;2022-07-06T09:26:05;91708.50;;;21.47
71807;BMP280;59655;42.590;23.364;2022-07-06T09:28:41;91708.38;;;21.59
71807;BMP280;59655;42.590;23.364;2022-07-06T09:31:07;91711.25;;;21.63
71807;BMP280;59655;42.590;23.364;2022-07-06T09:33:32;91705.44;;;21.69
71807;BMP280;59655;42.590;23.364;2022-07-06T09:35:59;91709.78;;;21.60
71807;BMP280;59655;42.590;23.364;2022-07-06T09:38:27;91704.78;;;21.55
71807;BMP280;59655;42.590;23.364;2022-07-06T09:40:52;91721.56;;;21.67
71807;BMP280;59655;42.590;23.364;2022-07-06T09:45:49;91706.53;;;21.78
71807;BMP280;59655;42.590;23.364;2022-07-06T09:48:17;91705.69;;;21.89
71807;BMP280;59655;42.590;23.364;2022-07-06T09:50:53;91700.06;;;21.85
71807;BMP280;59655;42.590;23.364;2022-07-06T09:53:21;91699.16;;;21.94
71807;BMP280;59655;42.590;23.364;2022-07-06T09:55:47;91697.47;;;21.87
71807;BMP280;59655;42.590;23.364;2022-07-06T09:58:14;91692.78;;;22.03
71807;BMP280;59655;42.590;23.364;2022-07-06T10:00:44;91691.66;;;22.08
71807;BMP280;59655;42.590;23.364;2022-07-06T10:03:10;91709.34;;;21.95
71807;BMP280;59655;42.590;23.364;2022-07-06T10:05:44;91689.13;;;21.96
71807;BMP280;59655;42.590;23.364;2022-07-06T10:08:12;91685.47;;;22.06
71807;BMP280;59655;42.590;23.364;2022-07-06T10:10:39;91685.03;;;22.11
71807;BMP280;59655;42.590;23.364;2022-07-06T10:13:06;91691.94;;;21.98
71807;BMP280;59655;42.590;23.364;2022-07-06T10:15:33;91691.50;;;22.04
71807;BMP280;59655;42.590;23.364;2022-07-06T10:18:00;91685.03;;;22.11
71807;BMP280;59655;42.590;23.364;2022-07-06T10:20:31;91703.06;;;22.22
71807;BMP280;59655;42.590;23.364;2022-07-06T10:22:59;91696.31;;;22.21
71807;BMP280;59655;42.590;23.364;2022-07-06T10:25:25;91683.38;;;22.04
71807;BMP280;59655;42.590;23.364;2022-07-06T10:27:54;91687.81;;;21.97
71807;BMP280;59655;42.590;23.364;2022-07-06T10:30:20;91675.63;;;22.12
71807;BMP280;59655;42.590;23.364;2022-07-06T10:32:47;91677.97;;;22.20
71807;BMP280;59655;42.590;23.364;2022-07-06T10:35:14;91678.91;;;22.27
71807;BMP280;59655;42.590;23.364;2022-07-06T10:37:40;91681.28;;;22.18
71807;BMP280;59655;42.590;23.364;2022-07-06T10:40:06;91677.72;;;22.14
71807;BMP280;59655;42.590;23.364;2022-07-06T10:42:57;91676.31;;;22.13
71807;BMP280;59655;42.590;23.364;2022-07-06T10:50:41;91679.38;;;22.05
71807;BMP280;59655;42.590;23.364;2022-07-06T10:53:16;91668.03;;;22.09
71807;BMP280;59655;42.590;23.364;2022-07-06T10:55:47;91679.78;;;22.15
71807;BMP280;59655;42.590;23.364;2022-07-06T10:58:14;91679.09;;;22.15
71807;BMP280;59655;42.590;23.364;2022-07-06T11:00:54;91680.94;;;22.26
71807;BMP280;59655;42.590;23.364;2022-07-06T11:06:20;91667.06;;;22.34
71807;BMP280;59655;42.590;23.364;2022-07-06T11:08:49;91684.50;;;22.31
71807;BMP280;59655;42.590;23.364;2022-07-06T11:13:49;91666.03;;;22.41
71807;BMP280;59655;42.590;23.364;2022-07-06T11:16:16;91670.03;;;22.40
71807;BMP280;59655;42.590;23.364;2022-07-06T11:18:47;91657.25;;;22.42
71807;BMP280;59655;42.590;23.364;2022-07-06T11:21:21;91669.78;;;22.34
71807;BMP280;59655;42.590;23.364;2022-07-06T11:23:47;91663.31;;;22.41
71807;BMP280;59655;42.590;23.364;2022-07-06T11:26:16;91664.72;;;22.42
71807;BMP280;59655;42.590;23.364;2022-07-06T11:28:42;91660.63;;;22.41
71807;BMP280;59655;42.590;23.364;2022-07-06T11:31:10;91651.50;;;22.50
71807;BMP280;59655;42.590;23.364;2022-07-06T11:33:36;91654.66;;;22.60
71807;BMP280;59655;42.590;23.364;2022-07-06T11:36:18;91654.56;;;22.58
71807;BMP280;59655;42.590;23.364;2022-07-06T11:38:45;91650.63;;;22.61
71807;BMP280;59655;42.590;23.364;2022-07-06T11:41:11;91638.31;;;22.58
71807;BMP280;59655;42.590;23.364;2022-07-06T11:43:39;91640.91;;;22.72
71807;BMP280;59655;42.590;23.364;2022-07-06T11:46:24;91649.41;;;22.64
71807;BMP280;59655;42.590;23.364;2022-07-06T11:48:51;91645.84;;;22.44
71807;BMP280;59655;42.590;23.364;2022-07-06T11:51:17;91624.94;;;22.29
71807;BMP280;59655;42.590;23.364;2022-07-06T11:53:47;91630.66;;;22.53
71807;BMP280;59655;42.590;23.364;2022-07-06T11:56:17;91638.16;;;22.54
71807;BMP280;59655;42.590;23.364;2022-07-06T11:58:45;91632.91;;;22.58
71807;BMP280;59655;42.590;23.364;2022-07-06T12:01:13;91629.78;;;22.64
71807;BMP280;59655;42.590;23.364;2022-07-06T12:03:42;91615.19;;;22.55
71807;BMP280;59655;42.590;23.364;2022-07-06T12:06:25;91623.72;;;22.65
71807;BMP280;59655;42.590;23.364;2022-07-06T12:08:52;91620.88;;;22.61
71807;BMP280;59655;42.590;23.364;2022-07-06T12:11:29;91637.66;;;22.42
71807;BMP280;59655;42.590;23.364;2022-07-06T12:13:59;91627.78;;;22.48
71807;BMP280;59655;42.590;23.364;2022-07-06T12:16:34;91610.75;;;22.62
71807;BMP280;59655;42.590;23.364;2022-07-06T12:19:04;91622.03;;;22.56
71807;BMP280;59655;42.590;23.364;2022-07-06T12:21:30;91612.75;;;22.61
71807;BMP280;59655;42.590;23.364;2022-07-06T12:23:56;91616.78;;;22.60
71807;BMP280;59655;42.590;23.364;2022-07-06T12:26:24;91612.44;;;22.71
71807;BMP280;59655;42.590;23.364;2022-07-06T12:29:09;91620.44;;;22.85
71807;BMP280;59655;42.590;23.364;2022-07-06T12:34:17;91622.97;;;23.14
71807;BMP280;59655;42.590;23.364;2022-07-06T12:36:56;91630.53;;;23.18
71807;BMP280;59655;42.590;23.364;2022-07-06T12:39:27;91615.44;;;23.49
71807;BMP280;59655;42.590;23.364;2022-07-06T12:41:53;91614.72;;;23.48
71807;BMP280;59655;42.590;23.364;2022-07-06T12:44:22;91628.16;;;23.82
71807;BMP280;59655;42.590;23.364;2022-07-06T12:47:09;91621.34;;;24.20
71807;BMP280;59655;42.590;23.364;2022-07-06T12:49:35;91617.13;;;24.57
71807;BMP280;59655;42.590;23.364;2022-07-06T12:57:06;91608.03;;;25.60
71807;BMP280;59655;42.590;23.364;2022-07-06T13:04:58;91628.75;;;25.71
71807;BMP280;59655;42.590;23.364;2022-07-06T13:07:25;91614.44;;;26.21
71807;BMP280;59655;42.590;23.364;2022-07-06T13:09:51;91612.84;;;26.68
71807;BMP280;59655;42.590;23.364;2022-07-06T13:12:17;91606.13;;;27.01
71807;BMP280;59655;42.590;23.364;2022-07-06T13:14:42;91603.34;;;27.29
71807;BMP280;59655;42.590;23.364;2022-07-06T13:17:08;91629.38;;;27.34
71807;BMP280;59655;42.590;23.364;2022-07-06T13:19:33;91612.56;;;27.14
71807;BMP280;59655;42.590;23.364;2022-07-06T13:21:58;91617.13;;;26.75
71807;BMP280;59655;42.590;23.364;2022-07-06T13:24:24;91599.91;;;27.29
71807;BMP280;59655;42.590;23.364;2022-07-06T13:26:50;91599.22;;;27.28
71807;BMP280;59655;42.590;23.364;2022-07-06T13:29:15;91610.19;;;27.64
71807;BMP280;59655;42.590;23.364;2022-07-06T13:31:41;91605.28;;;27.93
71807;BMP280;59655;42.590;23.364;2022-07-06T13:34:07;91597.38;;;27.71
71807;BMP280;59655;42.590;23.364;2022-07-06T13:36:34;91596.56;;;28.00
71807;BMP280;59655;42.590;23.364;2022-07-06T13:38:59;91597.72;;;28.27
71807;BMP280;59655;42.590;23.364;2022-07-06T13:41:25;91607.25;;;28.67
71807;BMP280;59655;42.590;23.364;2022-07-06T13:43:50;91620.97;;;27.92
71807;BMP280;59655;42.590;23.364;2022-07-06T13:46:16;91597.50;;;28.13
71807;BMP280;59655;42.590;23.364;2022-07-06T13:48:42;91596.72;;;28.95
71807;BMP280;59655;42.590;23.364;2022-07-06T13:51:07;91602.56;;;28.73
71807;BMP280;59655;42.590;23.364;2022-07-06T13:53:32;91598.22;;;29.04
71807;BMP280;59655;42.590;23.364;2022-07-06T13:55:58;91597.50;;;28.15
71807;BMP280;59655;42.590;23.364;2022-07-06T13:58:24;91592.94;;;28.28
71807;BMP280;59655;42.590;23.364;2022-07-06T14:00:52;91621.34;;;28.53
71807;BMP280;59655;42.590;23.364;2022-07-06T14:03:19;91593.03;;;28.32
71807;BMP280;59655;42.590;23.364;2022-07-06T14:05:44;91590.47;;;28.42
71807;BMP280;59655;42.590;23.364;2022-07-06T14:08:10;91599.72;;;28.65
71807;BMP280;59655;42.590;23.364;2022-07-06T14:10:35;91600.16;;;28.51
71807;BMP280;59655;42.590;23.364;2022-07-06T14:13:00;91607.00;;;28.50
71807;BMP280;59655;42.590;23.364;2022-07-06T14:15:26;91606.69;;;27.94
71807;BMP280;59655;42.590;23.364;2022-07-06T14:17:54;91596.97;;;27.85
71807;BMP280;59655;42.590;23.364;2022-07-06T14:20:20;91607.03;;;28.54
71807;BMP280;59655;42.590;23.364;2022-07-06T14:22:45;91613.50;;;27.95